createdAt,value
2023-02-08T00:00:59.183Z,13.13
2023-02-08T00:03:28.445Z,12.38
2023-02-08T00:06:18.083Z,12.57
2023-02-08T00:08:45.864Z,12.38
2023-02-08T00:11:13.747Z,13.10
2023-02-08T00:13:42.430Z,14.73
2023-02-08T00:16:10.546Z,12.23
2023-02-08T00:18:37.868Z,13.25
2023-02-08T00:21:18.218Z,12.00
2023-02-08T00:23:46.679Z,12.13
2023-02-08T00:26:15.189Z,13.25
2023-02-08T00:28:42.543Z,15.02
2023-02-08T00:31:10.040Z,15.77
2023-02-08T00:33:37.611Z,18.65
2023-02-08T00:36:07.502Z,17.02
2023-02-08T00:38:35.069Z,16.23
2023-02-08T00:41:02.350Z,17.13
2023-02-08T00:43:29.746Z,17.83
2023-02-08T00:45:57.944Z,17.10
2023-02-08T00:48:26.352Z,18.02
2023-02-08T00:51:05.614Z,17.90
2023-02-08T00:53:39.045Z,16.73
2023-02-08T00:56:07.334Z,18.07
2023-02-08T00:58:35.375Z,15.05
2023-02-08T01:01:03.782Z,15.52
2023-02-08T01:03:31.019Z,15.15
2023-02-08T01:06:02.054Z,15.48
2023-02-08T01:08:29.374Z,13.25
2023-02-08T01:11:07.978Z,15.60
2023-02-08T01:13:35.379Z,13.98
2023-02-08T01:16:33.130Z,13.23
2023-02-08T01:19:02.586Z,9.02
2023-02-08T01:21:37.616Z,11.40
2023-02-08T01:24:05.614Z,10.65
2023-02-08T01:26:34.057Z,9.38
2023-02-08T01:29:03.812Z,10.82
2023-02-08T01:31:34.584Z,7.05
2023-02-08T01:34:02.619Z,9.05
2023-02-08T01:36:31.496Z,8.27
2023-02-08T01:38:58.933Z,9.25
2023-02-08T01:41:31.277Z,9.52
2023-02-08T01:44:02.778Z,9.02
2023-02-08T01:46:31.173Z,8.02
2023-02-08T01:49:06.813Z,8.32
2023-02-08T01:51:40.594Z,9.13
2023-02-08T01:54:10.138Z,9.07
2023-02-08T01:56:45.927Z,8.27
2023-02-08T01:59:23.973Z,8.65
2023-02-08T02:01:54.688Z,9.85
2023-02-08T02:04:22.907Z,9.43
2023-02-08T02:06:53.916Z,9.77
2023-02-08T02:09:48.141Z,9.65
2023-02-08T02:12:16.421Z,10.43
2023-02-08T02:14:45.173Z,11.43
2023-02-08T02:17:14.105Z,10.60
2023-02-08T02:20:20.907Z,11.98
2023-02-08T02:23:06.535Z,11.85
2023-02-08T02:25:52.410Z,12.50
2023-02-08T02:28:41.125Z,12.43
2023-02-08T02:31:45.995Z,10.48
2023-02-08T02:34:36.351Z,12.73
2023-02-08T02:37:27.417Z,11.43
2023-02-08T02:39:54.614Z,11.60
2023-02-08T02:42:40.230Z,12.20
2023-02-08T02:45:41.459Z,11.48
2023-02-08T02:48:12.899Z,10.15
2023-02-08T02:50:52.398Z,12.48
2023-02-08T02:53:36.022Z,11.32
2023-02-08T02:56:15.770Z,11.70
2023-02-08T02:58:44.670Z,11.55
2023-02-08T03:01:12.489Z,12.70
2023-02-08T03:03:58.860Z,11.57
2023-02-08T03:06:29.062Z,10.02
2023-02-08T03:09:35.596Z,10.18
2023-02-08T03:12:23.137Z,10.35
2023-02-08T03:14:59.226Z,9.35
2023-02-08T03:17:49.184Z,10.30
2023-02-08T03:20:25.462Z,9.88
2023-02-08T03:23:09.637Z,9.23
2023-02-08T03:25:57.863Z,9.23
2023-02-08T03:28:41.186Z,10.07
2023-02-08T03:31:26.004Z,10.32
2023-02-08T03:34:16.300Z,9.77
2023-02-08T03:37:05.943Z,9.85
2023-02-08T03:39:36.415Z,9.73
2023-02-08T03:42:12.633Z,11.57
2023-02-08T03:44:47.027Z,11.73
2023-02-08T03:47:20.062Z,10.38
2023-02-08T03:49:52.527Z,11.05
2023-02-08T03:52:19.984Z,11.48
2023-02-08T03:55:05.302Z,10.43
2023-02-08T03:57:50.223Z,9.93
2023-02-08T04:00:19.378Z,12.07
2023-02-08T04:02:56.820Z,12.07
2023-02-08T04:05:24.980Z,10.77
2023-02-08T04:07:53.102Z,11.30
2023-02-08T04:10:20.938Z,12.32
2023-02-08T04:12:49.303Z,12.98
2023-02-08T04:15:17.575Z,11.68
2023-02-08T04:17:44.793Z,11.32
2023-02-08T04:20:12.335Z,11.32
2023-02-08T04:22:39.662Z,11.95
2023-02-08T04:25:07.104Z,11.35
2023-02-08T04:27:34.301Z,11.30
2023-02-08T04:30:01.587Z,11.32
2023-02-08T04:32:28.852Z,11.70
2023-02-08T04:34:55.987Z,11.00
2023-02-08T04:37:23.262Z,10.57
2023-02-08T04:39:50.422Z,9.27
2023-02-08T04:42:17.791Z,9.65
2023-02-08T04:44:45.097Z,10.13
2023-02-08T04:47:12.305Z,12.73
2023-02-08T04:49:41.022Z,11.18
2023-02-08T04:52:08.198Z,12.57
2023-02-08T04:54:35.460Z,12.70
2023-02-08T04:57:02.682Z,11.40
2023-02-08T04:59:29.917Z,8.02
2023-02-08T05:01:57.095Z,12.98
2023-02-08T05:04:24.223Z,11.93
2023-02-08T05:06:51.551Z,11.82
2023-02-08T05:09:18.761Z,12.85
2023-02-08T05:11:45.941Z,12.88
2023-02-08T05:14:13.105Z,12.82
2023-02-08T05:16:40.383Z,13.65
2023-02-08T05:19:07.736Z,10.75
2023-02-08T05:21:34.944Z,10.52
2023-02-08T05:24:02.181Z,10.65
2023-02-08T05:26:29.461Z,12.82
2023-02-08T05:28:56.661Z,13.60
2023-02-08T05:31:25.770Z,13.73
2023-02-08T05:33:53.706Z,12.93
2023-02-08T05:36:23.416Z,13.63
2023-02-08T05:38:51.093Z,13.85
2023-02-08T05:41:18.302Z,12.05
2023-02-08T05:43:46.226Z,12.13
2023-02-08T05:46:13.657Z,13.77
2023-02-08T05:48:41.031Z,14.00
2023-02-08T05:51:08.462Z,14.50
2023-02-08T05:53:35.729Z,13.05
2023-02-08T05:56:02.931Z,12.23
2023-02-08T05:58:30.534Z,11.23
2023-02-08T06:00:57.742Z,14.88
2023-02-08T06:03:24.934Z,15.88
2023-02-08T06:05:52.186Z,15.85
2023-02-08T06:08:19.371Z,13.68
2023-02-08T06:11:39.410Z,14.15
2023-02-08T06:14:06.613Z,13.70
2023-02-08T06:16:34.023Z,16.00
2023-02-08T06:19:01.291Z,15.43
2023-02-08T07:09:13.862Z,15.13
2023-02-08T07:11:44.384Z,16.03
2023-02-08T07:22:26.406Z,9.25
2023-02-08T08:12:19.511Z,14.35
2023-02-08T08:21:49.064Z,16.35
2023-02-08T08:24:16.337Z,7.25
2023-02-08T08:26:43.705Z,15.10
2023-02-08T08:29:10.937Z,16.15
2023-02-08T08:31:38.974Z,16.50
2023-02-08T08:34:06.311Z,15.52
2023-02-08T08:36:33.679Z,16.80
2023-02-08T08:39:01.106Z,10.40
2023-02-08T08:41:32.783Z,16.98
2023-02-08T08:44:00.491Z,19.00
2023-02-08T08:46:28.182Z,16.45
2023-02-08T08:49:05.529Z,17.65
2023-02-08T08:52:01.104Z,14.77
2023-02-08T08:54:29.211Z,17.10
2023-02-08T08:56:56.714Z,16.67
2023-02-08T08:59:24.396Z,12.98
2023-02-08T09:01:51.683Z,17.13
2023-02-08T09:04:19.222Z,16.75
2023-02-08T09:06:46.394Z,15.88
2023-02-08T09:09:13.847Z,16.42
2023-02-08T09:11:41.540Z,15.75
2023-02-08T09:14:08.774Z,12.20
2023-02-08T09:16:36.171Z,15.63
2023-02-08T09:19:07.776Z,10.07
2023-02-08T09:21:36.097Z,12.88
2023-02-08T09:24:04.863Z,6.00
2023-02-08T09:26:32.327Z,12.23
2023-02-08T09:29:01.172Z,10.38
2023-02-08T09:31:38.138Z,13.75
2023-02-08T09:34:06.990Z,11.25
2023-02-08T09:36:37.542Z,15.93
2023-02-08T09:39:23.873Z,19.13
2023-02-08T09:42:21.337Z,17.45
2023-02-08T09:44:48.674Z,20.02
2023-02-08T09:48:26.223Z,18.77
2023-02-08T10:05:17.834Z,20.10
2023-02-08T10:08:35.192Z,16.42
2023-02-08T10:11:30.872Z,18.27
2023-02-08T10:14:26.014Z,17.63
2023-02-08T10:20:50.108Z,17.52
2023-02-08T10:24:05.745Z,18.55
2023-02-08T10:27:37.640Z,7.30
2023-02-08T10:31:15.381Z,17.58
2023-02-08T10:34:24.413Z,17.33
2023-02-08T10:37:40.097Z,17.73
2023-02-08T10:41:00.180Z,11.45
2023-02-08T10:44:17.401Z,9.57
2023-02-08T10:47:14.866Z,14.43
2023-02-08T10:50:12.899Z,14.93
2023-02-08T10:52:49.121Z,17.63
2023-02-08T10:55:30.344Z,19.63
2023-02-08T10:58:40.899Z,20.30
2023-02-08T11:01:09.720Z,11.00
2023-02-08T11:03:40.067Z,17.75
2023-02-08T11:06:27.153Z,17.15
2023-02-08T11:08:56.296Z,9.38
2023-02-08T11:11:24.895Z,17.13
2023-02-08T11:13:52.070Z,13.52
2023-02-08T11:16:25.410Z,12.65
2023-02-08T11:18:57.261Z,14.77
2023-02-08T11:21:29.813Z,8.98
2023-02-08T11:23:58.780Z,9.98
2023-02-08T11:26:34.320Z,10.20
2023-02-08T11:29:50.714Z,13.57
2023-02-08T11:32:20.724Z,16.48
2023-02-08T11:35:31.900Z,12.23
2023-02-08T11:37:59.799Z,15.43
2023-02-08T11:40:36.958Z,14.88
2023-02-08T11:43:05.104Z,7.90
2023-02-08T11:45:38.221Z,13.82
2023-02-08T11:48:33.781Z,8.35
2023-02-08T11:51:03.025Z,10.02
2023-02-08T11:53:53.958Z,10.45
2023-02-08T12:22:37.161Z,9.10
2023-02-08T12:25:23.740Z,15.30
2023-02-08T12:28:14.124Z,12.18
2023-02-08T12:31:47.310Z,13.27
2023-02-08T12:34:28.256Z,14.45
2023-02-08T12:41:42.537Z,10.95
2023-02-08T12:44:12.345Z,8.95
2023-02-08T12:46:51.417Z,13.35
2023-02-08T12:49:49.798Z,13.00
2023-02-08T12:53:10.193Z,13.32
2023-02-08T12:55:50.294Z,7.25
2023-02-08T12:58:33.104Z,11.60
2023-02-08T13:02:00.303Z,8.38
2023-02-08T13:04:38.967Z,10.85
2023-02-08T13:07:22.256Z,8.48
2023-02-08T13:10:02.941Z,12.15
2023-02-08T13:20:30.754Z,9.93
2023-02-08T13:24:05.581Z,12.20
2023-02-08T13:27:09.872Z,8.73
2023-02-08T13:29:38.214Z,11.88
2023-02-08T13:32:30.709Z,11.65
2023-02-08T13:35:22.248Z,10.77
2023-02-08T13:38:01.747Z,11.55
2023-02-08T13:40:34.040Z,9.90
2023-02-08T13:43:35.500Z,10.77
2023-02-08T13:53:43.933Z,9.88
2023-02-08T13:56:13.015Z,10.57
2023-02-08T13:58:55.224Z,3.90
2023-02-08T14:02:34.419Z,9.27
2023-02-08T14:05:45.686Z,8.23
2023-02-08T14:08:39.353Z,5.72
2023-02-08T14:11:36.030Z,7.50
2023-02-08T14:14:16.710Z,7.45
2023-02-08T14:17:10.718Z,3.58
2023-02-08T14:19:40.472Z,4.10
2023-02-08T14:22:13.581Z,5.47
2023-02-08T14:25:21.236Z,6.75
2023-02-08T14:27:57.476Z,5.53
2023-02-08T14:30:40.630Z,4.82
2023-02-08T14:33:50.231Z,6.55
2023-02-08T14:36:34.031Z,3.78
2023-02-08T14:39:23.051Z,5.72
2023-02-08T14:42:04.146Z,5.90
2023-02-08T14:44:44.242Z,3.90
2023-02-08T14:47:15.735Z,6.47
2023-02-08T14:49:45.358Z,7.63
2023-02-08T14:52:25.056Z,5.00
2023-02-08T14:55:20.211Z,4.28
2023-02-08T14:57:47.514Z,5.53
2023-02-08T15:00:38.725Z,3.28
2023-02-08T15:03:12.795Z,6.20
2023-02-08T15:06:00.552Z,5.88
2023-02-08T15:08:28.331Z,7.60
2023-02-08T15:10:56.336Z,5.63
2023-02-08T15:13:25.351Z,4.20
2023-02-08T15:15:57.404Z,4.50
2023-02-08T15:18:33.818Z,4.45
2023-02-08T15:21:08.015Z,4.63
2023-02-08T15:23:35.256Z,5.90
2023-02-08T15:26:20.958Z,5.68
2023-02-08T15:28:48.176Z,5.88
2023-02-08T15:31:19.634Z,5.68
2023-02-08T15:33:47.749Z,6.30
2023-02-08T15:36:36.512Z,4.60
2023-02-08T15:39:11.508Z,3.75
2023-02-08T15:41:38.745Z,6.53
2023-02-08T15:44:22.329Z,4.22
2023-02-08T15:46:55.244Z,3.25
2023-02-08T15:49:34.624Z,4.05
2023-02-08T15:52:03.090Z,2.88
2023-02-08T15:54:30.888Z,4.85
2023-02-08T15:57:29.228Z,4.45
2023-02-08T15:59:57.135Z,5.65
2023-02-08T16:02:27.117Z,4.28
2023-02-08T16:04:55.035Z,5.25
2023-02-08T16:07:48.328Z,4.60
2023-02-08T16:10:44.485Z,5.75
2023-02-08T16:13:39.552Z,4.95
2023-02-08T16:16:16.073Z,3.80
2023-02-08T16:18:52.573Z,5.03
2023-02-08T16:21:27.368Z,5.47
2023-02-08T16:23:57.443Z,3.95
2023-02-08T16:26:36.323Z,5.18
2023-02-08T16:29:06.532Z,3.78
2023-02-08T16:31:35.804Z,4.18
2023-02-08T16:34:04.839Z,3.40
2023-02-08T16:36:40.996Z,5.53
2023-02-08T16:39:14.506Z,3.00
2023-02-08T16:42:12.932Z,4.47
2023-02-08T16:45:18.284Z,4.93
2023-02-08T16:47:54.956Z,4.13
2023-02-08T16:50:24.921Z,3.78
2023-02-08T16:53:00.694Z,4.00
2023-02-08T16:55:32.609Z,4.10
2023-02-08T16:58:01.090Z,5.45
2023-02-08T17:00:34.460Z,4.60
2023-02-08T17:03:02.220Z,3.60
2023-02-08T17:05:36.001Z,4.38
2023-02-08T17:08:08.476Z,3.83
2023-02-08T17:10:36.370Z,4.43
2023-02-08T17:13:19.134Z,4.38
2023-02-08T17:15:49.972Z,5.10
2023-02-08T17:18:26.924Z,4.00
2023-02-08T17:20:59.926Z,4.43
2023-02-08T17:23:28.060Z,5.30
2023-02-08T17:25:56.065Z,3.22
2023-02-08T17:28:24.118Z,4.95
2023-02-08T17:30:54.428Z,7.00
2023-02-08T17:33:22.183Z,6.55
2023-02-08T17:35:53.509Z,4.43
2023-02-08T17:38:22.241Z,4.40
2023-02-08T17:40:50.316Z,8.10
2023-02-08T17:43:18.416Z,5.03
2023-02-08T17:45:46.843Z,4.85
2023-02-08T17:48:14.919Z,5.00
2023-02-08T17:50:51.580Z,7.68
2023-02-08T17:53:20.014Z,6.75
2023-02-08T17:55:49.855Z,4.88
2023-02-08T17:58:18.361Z,6.40
2023-02-08T18:00:46.607Z,8.93
2023-02-08T18:03:14.270Z,9.38
2023-02-08T18:05:42.626Z,7.70
2023-02-08T18:08:10.335Z,7.43
2023-02-08T18:10:38.270Z,9.07
2023-02-08T18:13:05.702Z,9.05
2023-02-08T18:15:37.257Z,5.68
2023-02-08T18:18:05.301Z,7.30
2023-02-08T18:20:33.455Z,9.73
2023-02-08T18:23:01.431Z,8.68
2023-02-08T18:25:28.976Z,9.52
2023-02-08T18:27:58.580Z,8.98
2023-02-08T18:30:28.532Z,10.68
2023-02-08T18:32:56.953Z,8.32
2023-02-08T18:35:26.392Z,9.23
2023-02-08T18:37:56.148Z,9.73
2023-02-08T18:40:24.910Z,9.70
2023-02-08T18:42:53.511Z,9.60
2023-02-08T18:45:22.070Z,9.70
2023-02-08T18:47:50.870Z,10.00
2023-02-08T18:50:19.184Z,10.52
2023-02-08T18:52:47.375Z,9.70
2023-02-08T18:55:15.749Z,9.68
2023-02-08T18:57:48.848Z,9.52
2023-02-08T19:00:17.650Z,9.57
2023-02-08T19:02:48.561Z,9.82
2023-02-08T19:05:16.963Z,9.10
2023-02-08T19:07:45.168Z,9.00
2023-02-08T19:10:13.360Z,10.15
2023-02-08T19:12:42.833Z,8.15
2023-02-08T19:15:11.191Z,9.88
2023-02-08T19:17:39.329Z,8.43
2023-02-08T19:20:11.056Z,10.30
2023-02-08T19:22:49.102Z,9.38
2023-02-08T19:25:18.339Z,9.75
2023-02-08T19:27:52.150Z,11.15
2023-02-08T19:30:24.696Z,7.93
2023-02-08T19:32:53.142Z,9.90
2023-02-08T19:35:21.375Z,10.10
2023-02-08T19:37:51.828Z,9.27
2023-02-08T19:40:21.116Z,10.80
2023-02-08T19:42:49.267Z,9.70
2023-02-08T19:45:17.542Z,9.70
2023-02-08T19:47:51.361Z,10.68
2023-02-08T19:50:20.199Z,9.02
2023-02-08T19:52:48.289Z,8.77
2023-02-08T19:55:16.328Z,10.85
2023-02-08T19:57:48.364Z,11.13
2023-02-08T20:00:23.505Z,9.30
2023-02-08T20:02:52.934Z,8.85
2023-02-08T20:05:23.188Z,9.20
2023-02-08T20:07:51.361Z,11.15
2023-02-08T20:10:19.271Z,10.85
2023-02-08T20:12:47.543Z,7.65
2023-02-08T20:15:15.788Z,11.45
2023-02-08T20:17:45.284Z,8.82
2023-02-08T20:20:13.778Z,11.40
2023-02-08T20:22:42.074Z,9.10
2023-02-08T20:25:09.596Z,8.93
2023-02-08T20:27:37.460Z,12.65
2023-02-08T20:30:05.957Z,11.63
2023-02-08T20:32:33.966Z,11.75
2023-02-08T20:35:02.157Z,11.57
2023-02-08T20:37:30.109Z,12.18
2023-02-08T20:40:00.018Z,8.60
2023-02-08T20:42:28.290Z,10.18
2023-02-08T20:44:56.537Z,9.40
2023-02-08T20:47:24.439Z,8.43
2023-02-08T20:49:52.951Z,7.90
2023-02-08T20:52:20.993Z,3.45
2023-02-08T20:54:49.241Z,5.22
2023-02-08T20:57:18.939Z,8.70
2023-02-08T20:59:50.188Z,7.82
2023-02-08T21:02:23.374Z,6.15
2023-02-08T21:04:51.474Z,10.63
2023-02-08T21:07:19.220Z,4.97
2023-02-08T21:09:47.189Z,11.60
2023-02-08T21:12:15.342Z,7.47
2023-02-08T21:14:44.790Z,8.18
2023-02-08T21:17:12.417Z,12.93
2023-02-08T21:19:40.346Z,6.03
2023-02-08T21:22:08.008Z,8.55
2023-02-08T21:24:35.461Z,14.60
2023-02-08T21:27:02.750Z,12.35
2023-02-08T21:29:31.362Z,8.45
2023-02-08T21:31:59.188Z,12.32
2023-02-08T21:34:26.950Z,6.68
2023-02-08T21:36:54.279Z,13.40
2023-02-08T21:39:23.395Z,11.23
2023-02-08T21:41:52.337Z,6.45
2023-02-08T21:44:19.570Z,7.38
2023-02-08T21:46:46.832Z,12.63
2023-02-08T21:49:32.458Z,13.63
2023-02-08T21:52:18.339Z,7.72
2023-02-08T21:54:46.656Z,6.55
2023-02-08T21:57:14.025Z,12.40
2023-02-08T21:59:41.400Z,13.57
2023-02-08T22:02:16.229Z,7.00
2023-02-08T22:04:46.875Z,11.95
2023-02-08T22:07:14.384Z,12.85
2023-02-08T22:09:42.330Z,10.07
2023-02-08T22:12:15.343Z,9.00
2023-02-08T22:14:43.019Z,12.10
2023-02-08T22:17:11.098Z,11.90
2023-02-08T22:19:40.158Z,5.90
2023-02-08T22:22:08.311Z,7.30
2023-02-08T22:24:36.399Z,10.68
2023-02-08T22:27:04.238Z,11.50
2023-02-08T22:29:31.593Z,10.52
2023-02-08T22:31:59.052Z,9.63
2023-02-08T22:34:27.741Z,10.38
2023-02-08T22:36:55.302Z,9.85
2023-02-08T22:39:22.468Z,8.25
2023-02-08T22:41:49.882Z,7.25
2023-02-08T22:44:17.141Z,6.60
2023-02-08T22:46:44.364Z,7.25
2023-02-08T22:49:11.769Z,6.65
2023-02-08T22:51:39.131Z,3.97
2023-02-08T22:54:06.453Z,6.68
2023-02-08T22:56:33.706Z,8.32
2023-02-08T22:59:01.021Z,6.38
2023-02-08T23:01:29.402Z,6.65
2023-02-08T23:03:56.761Z,5.95
2023-02-08T23:06:23.902Z,8.48
2023-02-08T23:08:51.236Z,8.70
2023-02-08T23:11:20.144Z,3.85
2023-02-08T23:13:47.588Z,5.47
2023-02-08T23:16:16.967Z,4.80
2023-02-08T23:18:45.331Z,5.47
2023-02-08T23:21:15.674Z,5.53
2023-02-08T23:23:44.391Z,6.65
2023-02-08T23:26:18.126Z,8.80
2023-02-08T23:28:46.952Z,5.40
2023-02-08T23:31:15.379Z,4.57
2023-02-08T23:33:42.772Z,5.28
2023-02-08T23:36:13.914Z,4.43
2023-02-08T23:38:42.119Z,2.95
2023-02-08T23:41:13.743Z,4.22
2023-02-08T23:43:41.919Z,3.78
2023-02-08T23:46:18.375Z,3.95
2023-02-08T23:48:47.908Z,6.78
2023-02-08T23:51:16.633Z,4.45
2023-02-08T23:53:44.571Z,6.63
2023-02-08T23:56:19.830Z,5.97
2023-02-08T23:58:49.853Z,7.50
